createdAt,value
2023-10-25T00:02:14.758Z,98053.28
2023-10-25T00:04:46.349Z,98041.53
2023-10-25T00:07:18.412Z,98050.22
2023-10-25T00:09:58.510Z,98039.31
2023-10-25T00:12:30.337Z,98051.72
2023-10-25T00:15:04.299Z,98053.34
2023-10-25T00:17:34.265Z,98047.38
2023-10-25T00:20:09.684Z,98041.16
2023-10-25T00:22:38.537Z,98041.13
2023-10-25T00:25:12.236Z,98047.53
2023-10-25T00:27:46.585Z,98064.47
2023-10-25T00:30:18.530Z,98057.81
2023-10-25T00:32:51.916Z,98069.03
2023-10-25T00:35:25.823Z,98077.84
2023-10-25T00:37:56.278Z,98076.56
2023-10-25T00:40:28.249Z,98078.94
2023-10-25T00:43:25.598Z,98075.38
2023-10-25T00:46:12.706Z,98065.63
2023-10-25T00:48:51.594Z,98066.38
2023-10-25T00:51:24.237Z,98064.13
2023-10-25T00:53:57.165Z,98059.19
2023-10-25T00:56:31.536Z,98066.75
2023-10-25T00:59:15.295Z,98075.84
2023-10-25T01:01:46.369Z,98073.22
2023-10-25T01:04:16.344Z,98067.88
2023-10-25T01:06:49.119Z,98065.19
2023-10-25T01:09:29.890Z,98068.97
2023-10-25T01:12:01.532Z,98074.38
2023-10-25T01:14:47.104Z,98083.69
2023-10-25T01:17:24.771Z,98068.56
2023-10-25T01:19:59.760Z,98074.91
2023-10-25T01:22:34.226Z,98073.72
2023-10-25T01:25:04.027Z,98115.81
2023-10-25T01:27:32.538Z,98077.00
2023-10-25T01:30:04.973Z,98076.16
2023-10-25T01:32:36.249Z,98066.69
2023-10-25T01:35:06.145Z,98068.25
2023-10-25T01:37:38.659Z,98056.09
2023-10-25T01:40:13.516Z,98061.31
2023-10-25T01:42:45.515Z,98095.16
2023-10-25T01:45:22.549Z,98085.81
2023-10-25T01:47:51.991Z,98076.28
2023-10-25T01:50:20.972Z,98095.56
2023-10-25T01:52:59.897Z,98076.94
2023-10-25T01:55:29.385Z,98084.47
2023-10-25T01:57:57.958Z,98089.66
2023-10-25T02:00:27.546Z,98089.06
2023-10-25T02:02:56.682Z,98090.94
2023-10-25T02:05:31.380Z,98101.66
2023-10-25T02:08:15.052Z,98100.47
2023-10-25T02:10:47.612Z,98102.09
2023-10-25T02:13:17.763Z,98098.78
2023-10-25T02:15:57.316Z,98127.28
2023-10-25T02:18:31.722Z,98101.50
2023-10-25T02:21:02.345Z,98122.38
2023-10-25T02:23:42.225Z,98105.84
2023-10-25T02:26:11.553Z,98114.94
2023-10-25T02:28:42.816Z,98122.72
2023-10-25T02:31:17.219Z,98141.25
2023-10-25T02:33:48.211Z,98148.94
2023-10-25T02:36:25.416Z,98143.03
2023-10-25T02:38:57.409Z,98134.16
2023-10-25T02:41:26.953Z,98136.72
2023-10-25T02:43:59.953Z,98144.88
2023-10-25T02:46:30.637Z,98151.16
2023-10-25T02:49:01.226Z,98148.34
2023-10-25T02:51:36.061Z,98153.94
2023-10-25T02:54:12.145Z,98160.41
2023-10-25T02:56:49.353Z,98180.75
2023-10-25T02:59:18.289Z,98163.84
2023-10-25T03:01:54.836Z,98172.06
2023-10-25T03:04:27.097Z,98194.16
2023-10-25T03:07:01.513Z,98204.16
2023-10-25T03:09:41.590Z,98198.84
2023-10-25T03:12:16.990Z,98193.69
2023-10-25T03:14:51.502Z,98203.31
2023-10-25T03:17:30.367Z,98204.22
2023-10-25T03:20:09.005Z,98223.56
2023-10-25T03:22:40.863Z,98207.47
2023-10-25T03:25:16.860Z,98195.56
2023-10-25T03:27:46.772Z,98211.13
2023-10-25T03:30:19.048Z,98197.06
2023-10-25T03:32:50.969Z,98214.06
2023-10-25T03:35:22.496Z,98200.38
2023-10-25T03:37:50.940Z,98225.41
2023-10-25T03:40:22.847Z,98208.44
2023-10-25T03:42:52.204Z,98219.31
2023-10-25T03:45:29.275Z,98217.41
2023-10-25T03:48:01.201Z,98215.16
2023-10-25T03:50:32.895Z,98220.19
2023-10-25T03:53:02.078Z,98220.88
2023-10-25T03:55:35.809Z,98227.22
2023-10-25T03:58:04.794Z,98250.81
2023-10-25T04:00:36.836Z,98242.19
2023-10-25T04:03:07.524Z,98237.69
2023-10-25T04:05:40.404Z,98246.31
2023-10-25T04:08:08.789Z,98260.56
2023-10-25T04:10:47.033Z,98245.34
2023-10-25T04:13:16.223Z,98248.41
2023-10-25T04:16:07.793Z,98260.88
2023-10-25T04:18:38.967Z,98258.94
2023-10-25T04:21:15.304Z,98265.25
2023-10-25T04:23:46.026Z,98273.31
2023-10-25T04:26:30.513Z,98255.94
2023-10-25T04:28:58.836Z,98262.78
2023-10-25T04:31:28.337Z,98265.66
2023-10-25T04:33:57.481Z,98268.47
2023-10-25T04:36:27.172Z,98270.81
2023-10-25T04:38:57.508Z,98277.69
2023-10-25T04:41:41.892Z,98280.56
2023-10-25T04:44:11.156Z,98296.81
2023-10-25T04:46:48.368Z,98292.28
2023-10-25T04:49:19.249Z,98296.19
2023-10-25T04:51:56.334Z,98309.47
2023-10-25T04:54:24.639Z,98300.50
2023-10-25T04:56:56.581Z,98313.31
2023-10-25T04:59:27.689Z,98297.22
2023-10-25T05:02:11.332Z,98306.91
2023-10-25T05:04:41.137Z,98296.75
2023-10-25T05:07:14.049Z,98296.97
2023-10-25T05:09:52.714Z,98312.75
2023-10-25T05:12:41.316Z,98305.66
2023-10-25T05:15:11.113Z,98294.72
2023-10-25T05:17:43.306Z,98300.78
2023-10-25T05:20:21.520Z,98304.69
2023-10-25T05:22:53.480Z,98305.69
2023-10-25T05:25:32.873Z,98299.75
2023-10-25T05:28:07.877Z,98298.09
2023-10-25T05:30:43.655Z,98292.53
2023-10-25T05:33:14.491Z,98294.25
2023-10-25T05:35:43.525Z,98288.34
2023-10-25T05:38:22.315Z,98299.88
2023-10-25T05:41:06.324Z,98296.22
2023-10-25T05:44:04.051Z,98288.25
2023-10-25T05:46:35.889Z,98308.63
2023-10-25T05:49:18.238Z,98303.88
2023-10-25T05:51:47.470Z,98316.09
2023-10-25T05:54:28.577Z,98310.09
2023-10-25T05:56:58.160Z,98312.75
2023-10-25T05:59:43.660Z,98312.00
2023-10-25T06:02:15.491Z,98312.50
2023-10-25T06:04:45.400Z,98325.38
2023-10-25T06:07:21.989Z,98314.31
2023-10-25T06:10:05.289Z,98321.63
2023-10-25T06:12:43.639Z,98319.28
2023-10-25T06:15:25.710Z,98332.00
2023-10-25T06:18:01.501Z,98344.00
2023-10-25T06:20:32.732Z,98330.75
2023-10-25T06:23:07.916Z,98332.16
2023-10-25T06:25:38.206Z,98340.91
2023-10-25T06:28:09.123Z,98341.78
2023-10-25T06:30:46.744Z,98341.69
2023-10-25T06:33:26.467Z,98340.41
2023-10-25T06:36:09.718Z,98355.75
2023-10-25T06:38:39.875Z,98358.91
2023-10-25T06:41:23.559Z,98356.03
2023-10-25T06:44:09.924Z,98359.13
2023-10-25T06:46:46.125Z,98366.34
2023-10-25T06:49:18.003Z,98357.81
2023-10-25T06:51:49.023Z,98356.63
2023-10-25T06:54:23.487Z,98356.25
2023-10-25T06:57:01.498Z,98377.78
2023-10-25T06:59:43.169Z,98365.75
2023-10-25T07:02:43.663Z,98368.63
2023-10-25T07:05:17.585Z,98379.34
2023-10-25T07:07:51.689Z,98370.59
2023-10-25T07:10:25.845Z,98374.59
2023-10-25T07:13:03.961Z,98375.28
2023-10-25T07:15:37.415Z,98384.72
2023-10-25T07:18:08.968Z,98406.09
2023-10-25T07:20:40.308Z,98392.91
2023-10-25T07:23:09.764Z,98382.66
2023-10-25T07:25:42.528Z,98397.81
2023-10-25T07:28:23.914Z,98403.28
2023-10-25T07:30:55.714Z,98415.53
2023-10-25T07:33:31.581Z,98413.84
2023-10-25T07:36:12.404Z,98412.78
2023-10-25T07:38:43.431Z,98414.25
2023-10-25T07:41:17.454Z,98414.88
2023-10-25T07:43:48.685Z,98416.59
2023-10-25T07:46:20.938Z,98413.34
2023-10-25T07:48:56.639Z,98391.97
2023-10-25T07:51:27.568Z,98405.66
2023-10-25T07:54:09.367Z,98418.91
2023-10-25T07:59:19.239Z,98425.88
2023-10-25T08:01:51.467Z,98433.06
2023-10-25T08:04:29.372Z,98413.78
2023-10-25T08:07:00.795Z,98433.63
2023-10-25T08:09:32.729Z,98439.22
2023-10-25T08:12:01.110Z,98441.28
2023-10-25T08:14:32.472Z,98443.00
2023-10-25T08:17:03.527Z,98445.25
2023-10-25T08:19:34.613Z,98431.06
2023-10-25T08:22:06.304Z,98429.03
2023-10-25T08:24:38.107Z,98426.66
2023-10-25T08:27:15.187Z,98436.63
2023-10-25T08:29:52.539Z,98442.44
2023-10-25T08:32:27.523Z,98448.06
2023-10-25T08:35:08.971Z,98442.91
2023-10-25T08:37:38.812Z,98433.81
2023-10-25T08:40:23.092Z,98431.38
2023-10-25T08:42:57.732Z,98436.47
2023-10-25T08:45:39.425Z,98434.31
2023-10-25T08:48:12.327Z,98439.09
2023-10-25T08:50:48.907Z,98439.72
2023-10-25T08:53:27.751Z,98440.81
2023-10-25T08:55:58.508Z,98437.78
2023-10-25T08:58:31.882Z,98442.78
2023-10-25T09:01:03.627Z,98438.44
2023-10-25T09:03:48.960Z,98441.34
2023-10-25T09:06:28.182Z,98450.66
2023-10-25T09:09:03.689Z,98436.09
2023-10-25T09:11:44.177Z,98439.69
2023-10-25T09:14:32.510Z,98450.84
2023-10-25T09:17:01.300Z,98448.59
2023-10-25T09:19:43.709Z,98453.78
2023-10-25T09:22:36.286Z,98458.34
2023-10-25T09:25:09.264Z,98441.41
2023-10-25T09:27:53.541Z,98435.50
2023-10-25T09:30:31.493Z,98434.69
2023-10-25T09:33:06.757Z,98435.09
2023-10-25T09:35:37.361Z,98426.47
2023-10-25T09:38:09.273Z,98430.38
2023-10-25T09:40:39.785Z,98419.78
2023-10-25T09:43:21.181Z,98427.47
2023-10-25T09:45:56.256Z,98425.81
2023-10-25T09:48:27.786Z,98411.56
2023-10-25T09:51:08.516Z,98421.69
2023-10-25T09:53:57.513Z,98428.13
2023-10-25T09:56:29.711Z,98433.50
2023-10-25T09:59:01.269Z,98410.69
2023-10-25T10:01:32.332Z,98414.84
2023-10-25T10:04:13.375Z,98410.72
2023-10-25T10:06:52.833Z,98411.72
2023-10-25T10:09:47.080Z,98397.44
2023-10-25T10:12:26.678Z,98391.22
2023-10-25T10:14:57.584Z,98395.38
2023-10-25T10:17:34.071Z,98388.75
2023-10-25T10:20:13.124Z,98390.78
2023-10-25T10:23:08.774Z,98384.97
2023-10-25T10:25:56.325Z,98376.72
2023-10-25T10:28:54.790Z,98366.16
2023-10-25T10:31:36.506Z,98374.19
2023-10-25T10:34:15.593Z,98373.56
2023-10-25T10:37:10.408Z,98376.00
2023-10-25T10:39:43.709Z,98373.69
2023-10-25T10:42:22.697Z,98361.94
2023-10-25T10:44:59.512Z,98364.22
2023-10-25T10:47:31.866Z,98361.16
2023-10-25T10:50:07.646Z,98358.88
2023-10-25T10:52:40.216Z,98337.91
2023-10-25T10:55:13.479Z,98354.13
2023-10-25T10:58:06.309Z,98337.69
2023-10-25T11:00:38.181Z,98344.56
2023-10-25T11:03:10.654Z,98347.56
2023-10-25T11:05:39.660Z,98327.75
2023-10-25T11:08:17.177Z,98339.69
2023-10-25T11:10:51.199Z,98332.69
2023-10-25T11:13:32.808Z,98327.50
2023-10-25T11:16:12.605Z,98334.94
2023-10-25T11:18:50.545Z,98323.63
2023-10-25T11:21:21.110Z,98318.19
2023-10-25T11:23:49.640Z,98315.09
2023-10-25T11:26:21.454Z,98309.69
2023-10-25T11:29:01.990Z,98312.19
2023-10-25T11:31:40.743Z,98317.50
2023-10-25T11:34:15.285Z,98301.13
2023-10-25T11:36:47.092Z,98292.19
2023-10-25T11:39:23.888Z,98297.75
2023-10-25T11:41:55.584Z,98294.59
2023-10-25T11:44:34.378Z,98282.31
2023-10-25T11:47:11.538Z,98291.91
2023-10-25T11:49:42.301Z,98289.00
2023-10-25T11:52:11.588Z,98278.78
2023-10-25T11:54:41.146Z,98279.06
2023-10-25T11:57:14.297Z,98276.41
2023-10-25T11:59:52.467Z,98277.28
2023-10-25T12:02:23.867Z,98271.19
2023-10-25T12:04:55.120Z,98259.78
2023-10-25T12:07:26.729Z,98256.31
2023-10-25T12:10:03.422Z,98246.13
2023-10-25T12:12:36.412Z,98244.56
2023-10-25T12:15:10.602Z,98240.03
2023-10-25T12:17:43.858Z,98237.09
2023-10-25T12:20:26.862Z,98236.75
2023-10-25T12:22:59.653Z,98237.88
2023-10-25T12:25:29.400Z,98238.31
2023-10-25T12:27:59.266Z,98230.66
2023-10-25T12:30:34.192Z,98222.91
2023-10-25T12:33:17.592Z,98201.31
2023-10-25T12:35:56.877Z,98218.69
2023-10-25T12:38:28.148Z,98214.66
2023-10-25T12:40:59.539Z,98204.88
2023-10-25T12:43:37.078Z,98212.97
2023-10-25T12:46:09.988Z,98206.72
2023-10-25T12:48:45.987Z,98202.25
2023-10-25T12:51:18.934Z,98195.25
2023-10-25T12:53:55.019Z,98200.53
2023-10-25T12:56:27.310Z,98207.72
2023-10-25T12:58:57.116Z,98201.25
2023-10-25T13:01:29.849Z,98199.16
2023-10-25T13:04:00.765Z,98192.41
2023-10-25T13:06:32.766Z,98188.38
2023-10-25T13:09:06.150Z,98183.94
2023-10-25T13:11:39.936Z,98201.47
2023-10-25T13:14:09.656Z,98183.72
2023-10-25T13:16:56.533Z,98182.63
2023-10-25T13:19:36.779Z,98179.22
2023-10-25T13:22:06.077Z,98188.38
2023-10-25T13:24:35.515Z,98173.75
2023-10-25T13:27:08.608Z,98176.72
2023-10-25T13:29:39.788Z,98175.69
2023-10-25T13:32:10.283Z,98175.09
2023-10-25T13:34:40.775Z,98179.06
2023-10-25T13:37:13.252Z,98180.13
2023-10-25T13:39:44.190Z,98172.97
2023-10-25T13:42:20.985Z,98170.06
2023-10-25T13:44:53.459Z,98166.97
2023-10-25T13:47:26.595Z,98170.09
2023-10-25T13:50:05.590Z,98147.16
2023-10-25T13:52:34.867Z,98154.16
2023-10-25T13:55:14.348Z,98151.06
2023-10-25T13:57:51.566Z,98146.09
2023-10-25T14:00:23.851Z,98150.41
2023-10-25T14:03:10.385Z,98138.22
2023-10-25T14:05:42.753Z,98145.00
2023-10-25T14:08:15.215Z,98155.22
2023-10-25T14:10:52.882Z,98153.97
2023-10-25T14:13:38.489Z,98150.59
2023-10-25T14:16:09.265Z,98132.63
2023-10-25T14:18:47.523Z,98127.34
2023-10-25T14:21:21.704Z,98121.06
2023-10-25T14:23:53.138Z,98119.47
2023-10-25T14:26:28.257Z,98126.47
2023-10-25T14:29:00.741Z,98121.25
2023-10-25T14:31:32.178Z,98132.97
2023-10-25T14:34:07.110Z,98115.97
2023-10-25T14:36:39.134Z,98112.97
2023-10-25T14:39:07.631Z,98116.47
2023-10-25T14:41:44.852Z,98134.47
2023-10-25T14:44:17.211Z,98125.59
2023-10-25T14:46:51.110Z,98112.84
2023-10-25T14:49:24.536Z,98119.91
2023-10-25T14:52:01.891Z,98127.00
2023-10-25T14:54:32.466Z,98109.97
2023-10-25T14:57:02.250Z,98106.88
2023-10-25T14:59:33.002Z,98113.28
2023-10-25T15:02:07.912Z,98112.50
2023-10-25T15:04:52.873Z,98092.84
2023-10-25T15:07:34.561Z,98100.59
2023-10-25T15:10:12.683Z,98088.78
2023-10-25T15:12:43.610Z,98092.53
2023-10-25T15:15:19.545Z,98086.06
2023-10-25T15:17:54.806Z,98096.38
2023-10-25T15:20:25.819Z,98079.84
2023-10-25T15:22:57.587Z,98074.91
2023-10-25T15:25:37.299Z,98073.41
2023-10-25T15:28:07.075Z,98067.25
2023-10-25T15:30:44.783Z,98070.31
2023-10-25T15:33:15.001Z,98057.16
2023-10-25T15:36:07.266Z,98054.06
2023-10-25T15:38:39.111Z,98050.97
2023-10-25T15:41:23.192Z,98045.25
2023-10-25T15:44:01.932Z,98044.91
2023-10-25T15:46:35.689Z,98046.28
2023-10-25T15:49:14.044Z,98043.59
2023-10-25T15:51:54.347Z,98027.72
2023-10-25T15:54:37.359Z,98030.66
2023-10-25T15:57:11.628Z,98025.06
2023-10-25T15:59:42.282Z,98029.81
2023-10-25T16:02:17.801Z,98020.34
2023-10-25T16:04:48.356Z,98019.66
2023-10-25T16:07:24.931Z,98015.34
2023-10-25T16:09:53.856Z,98015.66
2023-10-25T16:12:30.933Z,98017.72
2023-10-25T16:15:02.960Z,98013.38
2023-10-25T16:17:38.058Z,98017.13
2023-10-25T16:20:17.862Z,98007.00
2023-10-25T16:22:59.237Z,97999.97
2023-10-25T16:25:31.106Z,98006.78
2023-10-25T16:28:01.070Z,98003.25
2023-10-25T16:30:36.193Z,97997.91
2023-10-25T16:33:15.916Z,97990.47
2023-10-25T16:35:57.946Z,98002.47
2023-10-25T16:38:34.343Z,98003.91
2023-10-25T16:41:07.831Z,97989.66
2023-10-25T16:43:43.900Z,98007.22
2023-10-25T16:46:22.063Z,97998.34
2023-10-25T16:49:08.265Z,98007.03
2023-10-25T16:51:49.036Z,97997.09
2023-10-25T16:54:35.581Z,98001.22
2023-10-25T16:57:08.762Z,97987.59
2023-10-25T16:59:41.019Z,97999.59
2023-10-25T17:02:15.693Z,97993.81
2023-10-25T17:05:04.260Z,97973.16
2023-10-25T17:07:45.691Z,97983.28
2023-10-25T17:10:18.813Z,97980.19
2023-10-25T17:12:56.517Z,97977.28
2023-10-25T17:15:34.544Z,97979.75
2023-10-25T17:18:12.950Z,97961.22
2023-10-25T17:21:00.602Z,97967.59
2023-10-25T17:23:38.669Z,97955.81
2023-10-25T17:26:30.512Z,97983.09
2023-10-25T17:29:11.002Z,97978.56
2023-10-25T17:31:45.785Z,97960.78
2023-10-25T17:34:31.473Z,97969.88
2023-10-25T17:37:11.260Z,97963.47
2023-10-25T17:39:52.414Z,97966.16
2023-10-25T17:42:37.861Z,97967.19
2023-10-25T17:45:13.089Z,97967.38
2023-10-25T17:47:56.148Z,97962.25
2023-10-25T17:50:38.355Z,97945.09
2023-10-25T17:53:24.271Z,97933.75
2023-10-25T17:56:00.598Z,97939.50
2023-10-25T17:58:33.634Z,97934.34
2023-10-25T18:01:20.495Z,97943.84
2023-10-25T18:03:56.607Z,97930.00
2023-10-25T18:06:49.278Z,97931.06
2023-10-25T18:09:39.634Z,97921.97
2023-10-25T18:12:13.200Z,97912.88
2023-10-25T18:15:07.820Z,97907.53
2023-10-25T18:17:48.252Z,97906.69
2023-10-25T18:20:35.891Z,97905.66
2023-10-25T18:23:08.753Z,97912.03
2023-10-25T18:25:42.159Z,97915.13
2023-10-25T18:28:23.572Z,97918.25
2023-10-25T18:31:58.741Z,97909.59
2023-10-25T18:34:05.231Z,97886.22
2023-10-25T18:36:46.117Z,97893.81
2023-10-25T18:39:31.794Z,97872.84
2023-10-25T18:42:13.855Z,97871.38
2023-10-25T18:44:54.746Z,97871.16
2023-10-25T18:47:46.461Z,97857.13
2023-10-25T18:50:25.408Z,97854.84
2023-10-25T18:53:25.791Z,97860.22
2023-10-25T18:56:23.815Z,97871.72
2023-10-25T18:59:00.750Z,97865.78
2023-10-25T19:01:59.918Z,97862.88
2023-10-25T19:06:29.488Z,97885.38
2023-10-25T19:08:26.637Z,97883.38
2023-10-25T19:14:08.316Z,97895.13
2023-10-25T19:16:46.484Z,97911.44
2023-10-25T19:22:37.300Z,97910.41
2023-10-25T19:25:23.319Z,97915.94
2023-10-25T19:28:18.312Z,97911.78
2023-10-25T19:31:01.891Z,97915.94
2023-10-25T19:33:53.879Z,97884.19
2023-10-25T19:36:26.351Z,97902.13
2023-10-25T19:39:16.239Z,97900.47
2023-10-25T19:41:57.871Z,97909.09
2023-10-25T19:44:41.086Z,97898.38
2023-10-25T19:47:15.582Z,97882.47
2023-10-25T19:50:05.720Z,97880.19
2023-10-25T19:52:49.495Z,97875.84
2023-10-25T19:55:29.003Z,97863.66
2023-10-25T19:58:10.640Z,97858.34
2023-10-25T20:00:54.645Z,97864.09
2023-10-25T20:03:30.847Z,97865.38
2023-10-25T20:06:21.443Z,97859.56
2023-10-25T20:09:05.756Z,97847.41
2023-10-25T20:11:46.575Z,97855.66
2023-10-25T20:14:17.867Z,97845.72
2023-10-25T20:16:58.312Z,97840.34
2023-10-25T20:19:37.353Z,97821.97
2023-10-25T20:22:19.446Z,97820.53
2023-10-25T20:24:57.334Z,97832.09
2023-10-25T20:27:47.156Z,97820.75
2023-10-25T20:33:57.814Z,97815.97
2023-10-25T20:36:37.670Z,97840.13
2023-10-25T20:39:18.861Z,97841.38
2023-10-25T20:41:54.187Z,97810.22
2023-10-25T20:44:47.243Z,97814.34
2023-10-25T20:47:27.669Z,97819.72
2023-10-25T20:50:06.717Z,97810.66
2023-10-25T20:52:47.400Z,97820.72
2023-10-25T20:55:27.524Z,97810.81
2023-10-25T20:58:00.714Z,97822.75
2023-10-25T21:00:35.690Z,97835.03
2023-10-25T21:03:06.490Z,97841.00
2023-10-25T21:05:42.597Z,97840.38
2023-10-25T21:08:21.369Z,97837.06
2023-10-25T21:10:59.784Z,97843.66
2023-10-25T21:13:30.874Z,97837.88
2023-10-25T21:16:09.527Z,97833.34
2023-10-25T21:18:43.899Z,97831.91
2023-10-25T21:21:21.947Z,97838.09
2023-10-25T21:23:54.531Z,97833.19
2023-10-25T21:26:29.464Z,97823.47
2023-10-25T21:29:23.220Z,97825.31
2023-10-25T21:32:21.115Z,97831.69
2023-10-25T21:35:18.100Z,97811.06
2023-10-25T21:37:56.845Z,97813.72
2023-10-25T21:40:35.226Z,97800.53
2023-10-25T21:46:11.906Z,97793.91
2023-10-25T21:49:08.173Z,97782.78
2023-10-25T21:54:37.769Z,97793.13
2023-10-25T21:57:15.066Z,97785.50
2023-10-25T21:59:54.587Z,97783.25
2023-10-25T22:03:03.559Z,97782.84
2023-10-25T22:05:53.102Z,97788.22
2023-10-25T22:08:23.377Z,97787.19
2023-10-25T22:11:02.157Z,97787.63
2023-10-25T22:13:36.643Z,97763.09
2023-10-25T22:16:20.830Z,97765.69
2023-10-25T22:19:19.800Z,97760.72
2023-10-25T22:21:55.453Z,97753.28
2023-10-25T22:24:27.316Z,97737.19
2023-10-25T22:27:12.002Z,97750.59
2023-10-25T22:29:43.048Z,97751.00
2023-10-25T22:32:13.806Z,97747.75
2023-10-25T22:34:46.693Z,97741.75
2023-10-25T22:37:26.238Z,97752.66
2023-10-25T22:40:13.797Z,97765.28
2023-10-25T22:42:50.741Z,97752.28
2023-10-25T22:45:22.153Z,97750.00
2023-10-25T22:48:15.469Z,97744.41
2023-10-25T22:51:07.590Z,97737.59
2023-10-25T22:53:59.927Z,97747.94
2023-10-25T22:56:38.589Z,97758.44
2023-10-25T22:59:22.789Z,97735.59
2023-10-25T23:02:08.278Z,97751.81
2023-10-25T23:04:40.391Z,97755.53
2023-10-25T23:10:03.940Z,97748.13
2023-10-25T23:12:38.805Z,97764.28
2023-10-25T23:15:23.153Z,97766.75
2023-10-25T23:17:58.997Z,97772.97
2023-10-25T23:20:31.102Z,97756.31
2023-10-25T23:23:01.413Z,97757.75
2023-10-25T23:29:20.910Z,97756.88
2023-10-25T23:31:52.404Z,97763.91
2023-10-25T23:34:24.759Z,97759.78
2023-10-25T23:36:55.906Z,97765.97
2023-10-25T23:39:38.011Z,97754.63
2023-10-25T23:42:20.319Z,97752.59
2023-10-25T23:45:09.233Z,97737.13
2023-10-25T23:47:55.997Z,97736.94
2023-10-25T23:50:27.717Z,97742.69
2023-10-25T23:53:05.226Z,97748.84
2023-10-25T23:55:34.646Z,97751.53
2023-10-25T23:58:12.751Z,97749.06
